ADDS METAR Data INFO
IDs: Format: Raw Decoded Include TAF

Data at: 1742 UTC 15 Dec 2017

PADQ 151716Z 12021G31KT 4SM RA BR BKN012 OVC017 04/03 A2934 RMK AO2 PK WND 12031/1714 P0006 T00390028 $
PADQ 151653Z 12021G30KT 4SM RA BR OVC015 04/03 A2936 RMK AO2 PK WND 12030/1646 SLP942 P0015 T00390028 $
PADQ 151553Z 12020G28KT 3SM RA BR OVC015 03/02 A2941 RMK AO2 PK WND 13028/1502 SLP959 P0008 T00330022
PADQ 151453Z AUTO 12022G27KT 7SM -RA SCT019 OVC023 04/02 A2945 RMK AO2 PK WND 14030/1432 RAB1358 SLP972 P0001 60001 T00390017 56044 TSNO $
PADQ 151428Z AUTO 13018G26KT 10SM -RA SCT025 BKN029 OVC036 04/01 A2947 RMK AO2 PK WND 13026/1424 RAB1358 P0000 T00440011 TSNO $
PADQ 151353Z AUTO 15015G22KT 10SM SCT029 OVC035 04/01 A2948 RMK AO2 RAB00E23 SLP983 P0000 T00440011 TSNO $
PADQ 151253Z AUTO 12009KT 10SM OVC023 04/02 A2954 RMK AO2 RAB33E45 SLP002 P0000 T00390017 TSNO $
PADQ 151215Z AUTO 15014G22KT 10SM SCT024 BKN028 BKN036 04/01 A2957 RMK AO2 T00390011 TSNO $
PADQ 151153Z AUTO 14012G19KT 10SM SCT024 BKN035 04/01 A2958 RMK AO2 RAB04E17B35E47 SLP017 P0000 60000 T00390011 10039 21056 58019 TSNO $
PADQ 151053Z AUTO 14012KT 10SM BKN024 03/01 A2961 RMK AO2 SLP027 T00330011 TSNO $
PADQ 150953Z AUTO 14005KT 10SM BKN026 M02/M04 A2964 RMK AO2 SLP038 T10221039 TSNO $
PADQ 150853Z AUTO 00000KT 10SM CLR M04/M05 A2964 RMK AO2 SLP036 T10391050 400281056 50001 TSNO $
PADQ 150753Z AUTO VRB04KT 10SM CLR M04/M04 A2964 RMK AO2 SLP036 T10391044 TSNO $
PADQ 150653Z AUTO 00000KT 10SM CLR M04/M04 A2965 RMK AO2 SLP041 T10391044 TSNO $
PADQ 150553Z AUTO 28004KT 10SM CLR M04/M06 A2963 RMK AO2 SLP034 T10441056 10028 21044 50009 TSNO $
PADQ 150453Z 27007KT 10SM CLR M04/M05 A2963 RMK AO2 SLP035 T10391050 $
PADQ 150353Z 29004KT 10SM CLR M03/M04 A2962 RMK AO2 SLP032 T10281044 $
PADQ 150253Z 27005KT 10SM CLR M02/M04 A2960 RMK AO2 SLP025 T10221039 51010 $
PADQ 150153Z 27006KT 10SM CLR M03/M04 A2960 RMK AO2 SLP023 T10281044 $
PADQ 150053Z 00000KT 10SM CLR M01/M03 A2958 RMK AO2 SLP017 T10061033 $
PADQ 142353Z 24005KT 10SM CLR 02/M02 A2957 RMK AO2 SLP015 T00221022 10028 21011 53002 $
PADQ 142253Z 26006KT 10SM CLR 01/M03 A2956 RMK AO2 SLP012 T00061028 $
PADQ 142153Z 30010KT 10SM CLR 02/M01 A2956 RMK AO2 SLP009 T00221011 $
PADQ 142053Z 28005KT 10SM CLR M01/M02 A2957 RMK AO2 SLP012 T10061022 51006 $
PADQ 141953Z VRB06KT 10SM CLR 01/M01 A2956 RMK AO2 SLP011 T00111011 $
PADQ 141853Z 27006KT 10SM CLR 00/M02 A2955 RMK AO2 SLP008 T00001017 $
PADQ 141753Z COR 17003KT 10SM CLR M01/M02 A2955 RMK AO2 SLP007 I6000 T10111022 10006 21033 56008 $
PADQ 141711Z 00000KT 10SM SCT025 M01/M02 A2955 RMK AO2 T10111022 $
PADQ 141653Z 21003KT 10SM OVC026 00/M01 A2955 RMK AO2 SLP008 T00001011 $
PADQ 141553Z 23003KT 10SM OVC026 M01/M02 A2956 RMK AO2 SLP011 T10111022 $
PADQ 141506Z AUTO 00000KT 10SM BKN025 OVC031 M01/M03 A2957 RMK AO2 T10111028 TSNO $
PADQ 141453Z AUTO VRB03KT 10SM FEW025 BKN031 M01/M03 A2957 RMK AO2 SLP015 I3000 T10111028 56011 TSNO $
PADQ 141353Z AUTO VRB03KT CLR 00/M02 A2959 RMK AO2 SLP019 T00001017 TSNO $
PADQ 141253Z AUTO 31007KT 10SM CLR M01/M02 A2959 RMK AO2 SLP019 I1000 T10061017 TSNO $
PADQ 141153Z AUTO 24004KT 10SM CLR M03/M04 A2961 RMK AO2 SLP026 70005 I1000 I6000 T10331039 11011 21033 58015 TSNO $
PADQ 141053Z AUTO 29004KT 10SM CLR M03/M04 A2962 RMK AO2 SLP031 I1000 T10331039 TSNO $
PADQ 140953Z AUTO 28006KT 10SM CLR M03/M03 A2964 RMK AO2 SLP038 I1000 T10281033 TSNO $
PADQ 140853Z AUTO 28005KT 10SM CLR M02/M03 A2965 RMK AO2 SLP041 I1000 I3000 T10221028 400721028 56005 TSNO $
PADQ 140753Z AUTO 29005KT 10SM CLR M02/M03 A2965 RMK AO2 SLP042 T10221028 TSNO $
PADQ 140653Z AUTO 29006KT 10SM CLR M02/M02 A2966 RMK AO2 SLP044 T10171022 TSNO $
PADQ 140553Z AUTO 29005KT 10SM CLR M01/M02 A2966 RMK AO2 SLP046 T10111017 10056 21011 50005 TSNO $